sensor_id;sensor_type;location;lat;lon;timestamp;pressure;altitude;pressure_sealevel;temperature;humidity
85189;BME280;75559;49.132;8.922;2024-03-02T00:02:21;98172.59;;;4.02;99.90
85189;BME280;75559;49.132;8.922;2024-03-02T00:04:47;98172.56;;;4.04;99.46
85189;BME280;75559;49.132;8.922;2024-03-02T00:07:14;98155.53;;;3.86;99.46
85189;BME280;75559;49.132;8.922;2024-03-02T00:09:39;98179.59;;;4.03;100.00
85189;BME280;75559;49.132;8.922;2024-03-02T00:12:05;98177.81;;;4.05;99.52
85189;BME280;75559;49.132;8.922;2024-03-02T00:14:30;98174.41;;;4.00;99.92
85189;BME280;75559;49.132;8.922;2024-03-02T00:16:56;98156.00;;;4.00;100.00
85189;BME280;75559;49.132;8.922;2024-03-02T00:19:21;98146.69;;;3.89;99.70
85189;BME280;75559;49.132;8.922;2024-03-02T00:21:47;98136.13;;;3.90;99.98
85189;BME280;75559;49.132;8.922;2024-03-02T00:24:31;98169.06;;;4.05;99.83
85189;BME280;75559;49.132;8.922;2024-03-02T00:26:58;98166.44;;;4.03;99.92
85189;BME280;75559;49.132;8.922;2024-03-02T00:29:23;98128.53;;;3.79;100.00
85189;BME280;75559;49.132;8.922;2024-03-02T00:31:49;98168.38;;;3.97;99.43
85189;BME280;75559;49.132;8.922;2024-03-02T00:34:15;98164.09;;;3.93;99.96
85189;BME280;75559;49.132;8.922;2024-03-02T00:36:41;98158.97;;;3.88;99.82
85189;BME280;75559;49.132;8.922;2024-03-02T00:39:07;98163.19;;;3.94;99.74
85189;BME280;75559;49.132;8.922;2024-03-02T00:41:33;98137.16;;;3.85;99.99
85189;BME280;75559;49.132;8.922;2024-03-02T00:44:02;98154.41;;;3.95;99.88
85189;BME280;75559;49.132;8.922;2024-03-02T00:46:30;98158.16;;;3.86;99.21
85189;BME280;75559;49.132;8.922;2024-03-02T00:48:57;98161.84;;;3.79;99.27
85189;BME280;75559;49.132;8.922;2024-03-02T00:51:25;98160.22;;;3.75;99.39
85189;BME280;75559;49.132;8.922;2024-03-02T00:53:52;98164.66;;;3.73;99.81
85189;BME280;75559;49.132;8.922;2024-03-02T00:56:21;98157.63;;;3.73;99.68
85189;BME280;75559;49.132;8.922;2024-03-02T00:58:46;98140.34;;;3.65;99.57
85189;BME280;75559;49.132;8.922;2024-03-02T01:01:11;98159.34;;;3.74;99.93
85189;BME280;75559;49.132;8.922;2024-03-02T01:03:37;98158.75;;;3.65;99.90
85189;BME280;75559;49.132;8.922;2024-03-02T01:06:04;98163.34;;;3.57;99.43
85189;BME280;75559;49.132;8.922;2024-03-02T01:08:29;98151.97;;;3.56;99.88
85189;BME280;75559;49.132;8.922;2024-03-02T01:10:55;98167.47;;;3.67;99.82
85189;BME280;75559;49.132;8.922;2024-03-02T01:13:22;98170.16;;;3.64;99.76
85189;BME280;75559;49.132;8.922;2024-03-02T01:15:48;98125.53;;;3.27;99.95
85189;BME280;75559;49.132;8.922;2024-03-02T01:18:13;98178.59;;;3.42;99.68
85189;BME280;75559;49.132;8.922;2024-03-02T01:20:39;98161.53;;;3.25;99.27
85189;BME280;75559;49.132;8.922;2024-03-02T01:23:04;98166.19;;;3.13;98.99
85189;BME280;75559;49.132;8.922;2024-03-02T01:25:29;98174.94;;;3.14;99.77
85189;BME280;75559;49.132;8.922;2024-03-02T01:27:55;98160.94;;;3.13;99.69
85189;BME280;75559;49.132;8.922;2024-03-02T01:30:20;98166.28;;;3.09;99.84
85189;BME280;75559;49.132;8.922;2024-03-02T01:32:46;98154.44;;;2.93;99.32
85189;BME280;75559;49.132;8.922;2024-03-02T01:35:12;98167.28;;;3.05;99.72
85189;BME280;75559;49.132;8.922;2024-03-02T01:37:37;98164.00;;;2.95;99.66
85189;BME280;75559;49.132;8.922;2024-03-02T01:40:03;98164.25;;;2.83;99.37
85189;BME280;75559;49.132;8.922;2024-03-02T01:42:35;98173.00;;;2.83;99.99
85189;BME280;75559;49.132;8.922;2024-03-02T01:45:01;98167.72;;;2.85;100.00
85189;BME280;75559;49.132;8.922;2024-03-02T01:47:26;98152.31;;;2.70;100.00
85189;BME280;75559;49.132;8.922;2024-03-02T01:49:51;98165.50;;;2.68;100.00
85189;BME280;75559;49.132;8.922;2024-03-02T01:52:17;98160.47;;;2.58;99.94
85189;BME280;75559;49.132;8.922;2024-03-02T01:54:42;98164.88;;;2.57;100.00
85189;BME280;75559;49.132;8.922;2024-03-02T01:57:07;98165.88;;;2.51;99.85
85189;BME280;75559;49.132;8.922;2024-03-02T01:59:33;98162.44;;;2.48;100.00
85189;BME280;75559;49.132;8.922;2024-03-02T02:01:58;98166.66;;;2.55;100.00
85189;BME280;75559;49.132;8.922;2024-03-02T02:04:24;98161.25;;;2.63;100.00
85189;BME280;75559;49.132;8.922;2024-03-02T02:06:53;98156.13;;;2.57;100.00
85189;BME280;75559;49.132;8.922;2024-03-02T02:09:18;98142.75;;;2.27;100.00
85189;BME280;75559;49.132;8.922;2024-03-02T02:11:44;98154.31;;;2.18;100.00
85189;BME280;75559;49.132;8.922;2024-03-02T02:14:10;98151.94;;;2.06;100.00
85189;BME280;75559;49.132;8.922;2024-03-02T02:16:36;98156.53;;;1.97;100.00
85189;BME280;75559;49.132;8.922;2024-03-02T02:19:01;98145.97;;;2.00;100.00
85189;BME280;75559;49.132;8.922;2024-03-02T02:21:27;98155.09;;;1.80;100.00
85189;BME280;75559;49.132;8.922;2024-03-02T02:23:52;98151.75;;;1.72;100.00
85189;BME280;75559;49.132;8.922;2024-03-02T02:26:18;98148.31;;;1.69;100.00
85189;BME280;75559;49.132;8.922;2024-03-02T02:28:43;98141.44;;;1.63;100.00
85189;BME280;75559;49.132;8.922;2024-03-02T02:31:13;98142.38;;;1.59;100.00
85189;BME280;75559;49.132;8.922;2024-03-02T02:33:41;98141.72;;;1.48;100.00
85189;BME280;75559;49.132;8.922;2024-03-02T02:36:07;98140.97;;;1.41;99.88
85189;BME280;75559;49.132;8.922;2024-03-02T02:38:38;98138.34;;;1.41;100.00
85189;BME280;75559;49.132;8.922;2024-03-02T02:41:05;98135.63;;;1.46;100.00
85189;BME280;75559;49.132;8.922;2024-03-02T02:43:30;98128.69;;;1.43;100.00
85189;BME280;75559;49.132;8.922;2024-03-02T02:45:56;98109.91;;;1.21;100.00
85189;BME280;75559;49.132;8.922;2024-03-02T02:48:21;98127.31;;;1.24;100.00
85189;BME280;75559;49.132;8.922;2024-03-02T02:50:46;98129.16;;;1.19;100.00
85189;BME280;75559;49.132;8.922;2024-03-02T02:53:12;98137.13;;;1.11;100.00
85189;BME280;75559;49.132;8.922;2024-03-02T02:55:39;98121.44;;;1.08;100.00
85189;BME280;75559;49.132;8.922;2024-03-02T02:58:08;98103.34;;;0.94;100.00
85189;BME280;75559;49.132;8.922;2024-03-02T03:00:34;98123.06;;;1.17;100.00
85189;BME280;75559;49.132;8.922;2024-03-02T03:02:59;98123.00;;;1.21;100.00
85189;BME280;75559;49.132;8.922;2024-03-02T03:05:24;98127.41;;;1.18;100.00
85189;BME280;75559;49.132;8.922;2024-03-02T03:07:50;98121.53;;;1.04;100.00
85189;BME280;75559;49.132;8.922;2024-03-02T03:10:16;98135.66;;;0.93;100.00
85189;BME280;75559;49.132;8.922;2024-03-02T03:12:42;98133.13;;;0.89;100.00
85189;BME280;75559;49.132;8.922;2024-03-02T03:15:08;98124.53;;;0.81;100.00
85189;BME280;75559;49.132;8.922;2024-03-02T03:17:34;98121.81;;;0.87;100.00
85189;BME280;75559;49.132;8.922;2024-03-02T03:20:01;98121.09;;;0.79;100.00
85189;BME280;75559;49.132;8.922;2024-03-02T03:22:27;98109.91;;;0.69;100.00
85189;BME280;75559;49.132;8.922;2024-03-02T03:24:52;98120.28;;;0.74;100.00
85189;BME280;75559;49.132;8.922;2024-03-02T03:27:18;98127.19;;;0.78;100.00
85189;BME280;75559;49.132;8.922;2024-03-02T03:29:45;98126.41;;;0.73;100.00
85189;BME280;75559;49.132;8.922;2024-03-02T03:32:10;98129.97;;;0.69;100.00
85189;BME280;75559;49.132;8.922;2024-03-02T03:34:35;98120.28;;;0.74;100.00
85189;BME280;75559;49.132;8.922;2024-03-02T03:37:01;98128.06;;;0.78;100.00
85189;BME280;75559;49.132;8.922;2024-03-02T03:39:27;98123.69;;;0.79;100.00
85189;BME280;75559;49.132;8.922;2024-03-02T03:41:53;98120.09;;;0.86;100.00
85189;BME280;75559;49.132;8.922;2024-03-02T03:44:18;98117.53;;;0.81;100.00
85189;BME280;75559;49.132;8.922;2024-03-02T03:46:44;98109.44;;;0.97;100.00
85189;BME280;75559;49.132;8.922;2024-03-02T03:49:09;98100.56;;;1.04;100.00
85189;BME280;75559;49.132;8.922;2024-03-02T03:51:34;98116.31;;;1.02;100.00
85189;BME280;75559;49.132;8.922;2024-03-02T03:54:00;98120.00;;;0.92;100.00
85189;BME280;75559;49.132;8.922;2024-03-02T03:56:26;98107.06;;;0.83;100.00
85189;BME280;75559;49.132;8.922;2024-03-02T03:58:51;98108.00;;;0.79;100.00
85189;BME280;75559;49.132;8.922;2024-03-02T04:01:17;98102.56;;;0.89;100.00
85189;BME280;75559;49.132;8.922;2024-03-02T04:03:43;98101.56;;;0.98;100.00
85189;BME280;75559;49.132;8.922;2024-03-02T04:06:08;98111.88;;;1.07;100.00
85189;BME280;75559;49.132;8.922;2024-03-02T04:08:33;98109.22;;;1.09;100.00
85189;BME280;75559;49.132;8.922;2024-03-02T04:10:59;98113.56;;;1.10;100.00
85189;BME280;75559;49.132;8.922;2024-03-02T04:13:24;98111.81;;;1.10;100.00
85189;BME280;75559;49.132;8.922;2024-03-02T04:15:50;98110.88;;;1.14;100.00
85189;BME280;75559;49.132;8.922;2024-03-02T04:18:15;98079.75;;;0.96;100.00
85189;BME280;75559;49.132;8.922;2024-03-02T04:20:41;98112.66;;;1.12;100.00
85189;BME280;75559;49.132;8.922;2024-03-02T04:23:06;98107.78;;;1.40;100.00
85189;BME280;75559;49.132;8.922;2024-03-02T04:25:32;98106.78;;;1.47;100.00
85189;BME280;75559;49.132;8.922;2024-03-02T04:27:58;98105.91;;;1.47;100.00
85189;BME280;75559;49.132;8.922;2024-03-02T04:30:23;98101.72;;;1.38;100.00
85189;BME280;75559;49.132;8.922;2024-03-02T04:32:48;98097.84;;;1.57;100.00
85189;BME280;75559;49.132;8.922;2024-03-02T04:35:14;98097.66;;;1.67;100.00
85189;BME280;75559;49.132;8.922;2024-03-02T04:37:39;98099.25;;;1.75;100.00
85189;BME280;75559;49.132;8.922;2024-03-02T04:40:05;98091.38;;;1.77;100.00
85189;BME280;75559;49.132;8.922;2024-03-02T04:42:34;98096.41;;;1.86;100.00
85189;BME280;75559;49.132;8.922;2024-03-02T04:45:00;98085.97;;;1.84;100.00
85189;BME280;75559;49.132;8.922;2024-03-02T04:47:25;98097.41;;;1.80;100.00
85189;BME280;75559;49.132;8.922;2024-03-02T04:49:50;98098.72;;;2.01;100.00
85189;BME280;75559;49.132;8.922;2024-03-02T04:52:16;98094.38;;;2.00;100.00
85189;BME280;75559;49.132;8.922;2024-03-02T04:54:41;98094.69;;;1.85;100.00
85189;BME280;75559;49.132;8.922;2024-03-02T04:57:25;98097.25;;;1.88;100.00
85189;BME280;75559;49.132;8.922;2024-03-02T04:59:51;98102.13;;;2.05;100.00
85189;BME280;75559;49.132;8.922;2024-03-02T05:02:16;98094.13;;;2.11;100.00
85189;BME280;75559;49.132;8.922;2024-03-02T05:04:41;98101.72;;;2.23;100.00
85189;BME280;75559;49.132;8.922;2024-03-02T05:07:07;98095.25;;;2.41;100.00
85189;BME280;75559;49.132;8.922;2024-03-02T05:09:32;98084.94;;;2.69;100.00
85189;BME280;75559;49.132;8.922;2024-03-02T05:11:58;98092.31;;;2.90;100.00
85189;BME280;75559;49.132;8.922;2024-03-02T05:14:41;98096.47;;;3.65;100.00
85189;BME280;75559;49.132;8.922;2024-03-02T05:17:07;98097.56;;;3.58;99.59
85189;BME280;75559;49.132;8.922;2024-03-02T05:19:32;98104.09;;;3.42;99.32
85189;BME280;75559;49.132;8.922;2024-03-02T05:21:58;98107.88;;;3.32;99.50
85189;BME280;75559;49.132;8.922;2024-03-02T05:24:23;98115.03;;;3.27;100.00
85189;BME280;75559;49.132;8.922;2024-03-02T05:26:48;98114.25;;;3.23;100.00
85189;BME280;75559;49.132;8.922;2024-03-02T05:29:14;98124.59;;;3.29;99.92
85189;BME280;75559;49.132;8.922;2024-03-02T05:31:40;98117.34;;;3.39;99.76
85189;BME280;75559;49.132;8.922;2024-03-02T05:34:08;98110.19;;;3.76;99.43
85189;BME280;75559;49.132;8.922;2024-03-02T05:36:33;98110.59;;;4.23;98.10
85189;BME280;75559;49.132;8.922;2024-03-02T05:38:59;98124.50;;;4.28;97.84
85189;BME280;75559;49.132;8.922;2024-03-02T05:41:24;98135.63;;;4.08;97.33
85189;BME280;75559;49.132;8.922;2024-03-02T05:43:49;98147.59;;;3.88;98.00
85189;BME280;75559;49.132;8.922;2024-03-02T05:46:15;98135.84;;;3.68;97.77
85189;BME280;75559;49.132;8.922;2024-03-02T05:48:40;98141.31;;;3.61;98.89
85189;BME280;75559;49.132;8.922;2024-03-02T05:51:05;98141.41;;;3.58;98.90
85189;BME280;75559;49.132;8.922;2024-03-02T05:53:31;98147.59;;;3.55;99.42
85189;BME280;75559;49.132;8.922;2024-03-02T05:55:56;98144.69;;;3.66;99.25
85189;BME280;75559;49.132;8.922;2024-03-02T05:58:22;98153.97;;;3.79;98.56
85189;BME280;75559;49.132;8.922;2024-03-02T06:00:59;98152.94;;;3.85;98.65
85189;BME280;75559;49.132;8.922;2024-03-02T06:03:24;98154.63;;;3.87;97.91
85189;BME280;75559;49.132;8.922;2024-03-02T06:05:50;98149.47;;;3.83;98.28
85189;BME280;75559;49.132;8.922;2024-03-02T06:08:16;98151.16;;;3.85;97.81
85189;BME280;75559;49.132;8.922;2024-03-02T06:10:41;98152.25;;;3.78;98.35
85189;BME280;75559;49.132;8.922;2024-03-02T06:13:06;98152.53;;;3.67;98.46
85189;BME280;75559;49.132;8.922;2024-03-02T06:15:32;98141.97;;;3.69;98.58
85189;BME280;75559;49.132;8.922;2024-03-02T06:17:58;98122.38;;;3.46;98.53
85189;BME280;75559;49.132;8.922;2024-03-02T06:20:23;98141.56;;;3.52;98.62
85189;BME280;75559;49.132;8.922;2024-03-02T06:22:49;98144.81;;;3.61;99.06
85189;BME280;75559;49.132;8.922;2024-03-02T06:25:14;98143.91;;;3.62;98.88
85189;BME280;75559;49.132;8.922;2024-03-02T06:27:39;98144.97;;;3.55;98.65
85189;BME280;75559;49.132;8.922;2024-03-02T06:30:05;98138.25;;;3.43;98.27
85189;BME280;75559;49.132;8.922;2024-03-02T06:32:31;98145.31;;;3.41;98.31
85189;BME280;75559;49.132;8.922;2024-03-02T06:34:56;98141.81;;;3.41;98.97
85189;BME280;75559;49.132;8.922;2024-03-02T06:37:21;98141.69;;;3.47;98.52
85189;BME280;75559;49.132;8.922;2024-03-02T06:39:47;98147.56;;;3.57;98.67
85189;BME280;75559;49.132;8.922;2024-03-02T06:42:12;98146.28;;;3.71;98.51
85189;BME280;75559;49.132;8.922;2024-03-02T06:44:37;98153.16;;;3.77;98.56
85189;BME280;75559;49.132;8.922;2024-03-02T06:47:03;98148.72;;;3.79;98.05
85189;BME280;75559;49.132;8.922;2024-03-02T06:49:29;98154.00;;;3.77;98.05
85189;BME280;75559;49.132;8.922;2024-03-02T06:51:54;98150.56;;;3.75;98.33
85189;BME280;75559;49.132;8.922;2024-03-02T06:54:20;98135.88;;;3.67;98.03
85189;BME280;75559;49.132;8.922;2024-03-02T06:56:46;98154.06;;;3.76;97.83
85189;BME280;75559;49.132;8.922;2024-03-02T06:59:11;98144.44;;;3.75;98.25
85189;BME280;75559;49.132;8.922;2024-03-02T07:01:37;98124.41;;;3.69;98.01
85189;BME280;75559;49.132;8.922;2024-03-02T07:04:02;98148.53;;;3.85;98.05
85189;BME280;75559;49.132;8.922;2024-03-02T07:06:27;98150.09;;;3.92;98.17
85189;BME280;75559;49.132;8.922;2024-03-02T07:08:53;98153.44;;;3.97;97.40
85189;BME280;75559;49.132;8.922;2024-03-02T07:11:18;98153.38;;;4.00;97.11
85189;BME280;75559;49.132;8.922;2024-03-02T07:13:44;98157.00;;;3.96;97.48
85189;BME280;75559;49.132;8.922;2024-03-02T07:16:09;98158.69;;;3.99;97.69
85189;BME280;75559;49.132;8.922;2024-03-02T07:18:55;98140.47;;;3.91;97.42
85189;BME280;75559;49.132;8.922;2024-03-02T07:21:21;98165.41;;;4.40;96.48
85189;BME280;75559;49.132;8.922;2024-03-02T07:23:47;98161.25;;;4.61;96.53
85189;BME280;75559;49.132;8.922;2024-03-02T07:26:13;98154.91;;;5.24;93.04
85189;BME280;75559;49.132;8.922;2024-03-02T07:28:40;98158.97;;;5.59;92.36
85189;BME280;75559;49.132;8.922;2024-03-02T07:31:06;98159.72;;;5.62;92.91
85189;BME280;75559;49.132;8.922;2024-03-02T07:33:32;98161.13;;;5.72;92.04
85189;BME280;75559;49.132;8.922;2024-03-02T07:35:59;98162.25;;;5.65;92.50
85189;BME280;75559;49.132;8.922;2024-03-02T07:38:26;98161.53;;;5.35;92.92
85189;BME280;75559;49.132;8.922;2024-03-02T07:40:52;98158.50;;;5.21;92.34
85189;BME280;75559;49.132;8.922;2024-03-02T07:43:18;98158.88;;;5.09;94.04
85189;BME280;75559;49.132;8.922;2024-03-02T07:45:44;98170.28;;;5.09;93.81
85189;BME280;75559;49.132;8.922;2024-03-02T07:48:10;98175.66;;;5.06;94.76
85189;BME280;75559;49.132;8.922;2024-03-02T07:50:35;98163.38;;;5.05;94.43
85189;BME280;75559;49.132;8.922;2024-03-02T07:53:02;98170.03;;;5.17;94.52
85189;BME280;75559;49.132;8.922;2024-03-02T07:55:29;98167.88;;;5.30;93.94
85189;BME280;75559;49.132;8.922;2024-03-02T07:57:55;98162.34;;;5.37;93.61
85189;BME280;75559;49.132;8.922;2024-03-02T08:00:20;98168.06;;;5.50;93.16
85189;BME280;75559;49.132;8.922;2024-03-02T08:02:46;98172.66;;;5.70;91.95
85189;BME280;75559;49.132;8.922;2024-03-02T08:05:11;98166.38;;;6.24;89.80
85189;BME280;75559;49.132;8.922;2024-03-02T08:07:37;98179.69;;;6.46;90.67
85189;BME280;75559;49.132;8.922;2024-03-02T08:10:02;98174.75;;;7.05;87.55
85189;BME280;75559;49.132;8.922;2024-03-02T08:12:28;98168.25;;;7.97;85.67
85189;BME280;75559;49.132;8.922;2024-03-02T08:14:53;98176.84;;;8.81;82.85
85189;BME280;75559;49.132;8.922;2024-03-02T08:17:19;98163.69;;;10.21;77.80
85189;BME280;75559;49.132;8.922;2024-03-02T08:19:44;98168.50;;;11.28;70.79
85189;BME280;75559;49.132;8.922;2024-03-02T08:22:10;98166.66;;;13.05;64.08
85189;BME280;75559;49.132;8.922;2024-03-02T08:24:36;98160.16;;;14.30;61.11
85189;BME280;75559;49.132;8.922;2024-03-02T08:27:01;98163.63;;;14.70;56.64
85189;BME280;75559;49.132;8.922;2024-03-02T08:29:27;98155.25;;;15.84;52.63
85189;BME280;75559;49.132;8.922;2024-03-02T08:31:53;98148.03;;;16.66;52.14
85189;BME280;75559;49.132;8.922;2024-03-02T08:34:18;98152.88;;;16.38;52.93
85189;BME280;75559;49.132;8.922;2024-03-02T08:36:44;98142.38;;;17.25;48.32
85189;BME280;75559;49.132;8.922;2024-03-02T08:39:09;98136.22;;;17.67;48.10
85189;BME280;75559;49.132;8.922;2024-03-02T08:41:49;98129.78;;;17.80;46.51
85189;BME280;75559;49.132;8.922;2024-03-02T08:44:16;98119.44;;;19.19;43.90
85189;BME280;75559;49.132;8.922;2024-03-02T08:46:43;98127.53;;;18.89;43.93
85189;BME280;75559;49.132;8.922;2024-03-02T08:49:08;98128.03;;;19.53;42.43
85189;BME280;75559;49.132;8.922;2024-03-02T08:51:34;98123.69;;;19.91;42.10
85189;BME280;75559;49.132;8.922;2024-03-02T08:53:59;98131.50;;;19.94;38.79
85189;BME280;75559;49.132;8.922;2024-03-02T08:56:25;98125.69;;;20.84;37.89
85189;BME280;75559;49.132;8.922;2024-03-02T08:58:51;98127.16;;;21.06;36.58
85189;BME280;75559;49.132;8.922;2024-03-02T09:01:18;98123.47;;;20.60;37.96
85189;BME280;75559;49.132;8.922;2024-03-02T09:03:44;98133.03;;;20.55;37.93
85189;BME280;75559;49.132;8.922;2024-03-02T09:06:11;98127.63;;;21.01;36.24
85189;BME280;75559;49.132;8.922;2024-03-02T09:08:36;98137.63;;;19.96;37.75
85189;BME280;75559;49.132;8.922;2024-03-02T09:11:02;98129.34;;;20.17;38.02
85189;BME280;75559;49.132;8.922;2024-03-02T09:13:28;98133.38;;;20.79;36.47
85189;BME280;75559;49.132;8.922;2024-03-02T09:15:54;98131.34;;;20.91;36.19
85189;BME280;75559;49.132;8.922;2024-03-02T09:18:19;98126.47;;;21.59;35.30
85189;BME280;75559;49.132;8.922;2024-03-02T09:20:45;98131.16;;;22.02;34.37
85189;BME280;75559;49.132;8.922;2024-03-02T09:23:11;98102.94;;;21.41;34.99
85189;BME280;75559;49.132;8.922;2024-03-02T09:25:37;98116.09;;;21.90;33.88
85189;BME280;75559;49.132;8.922;2024-03-02T09:28:02;98119.63;;;20.63;36.68
85189;BME280;75559;49.132;8.922;2024-03-02T09:30:28;98120.28;;;21.11;35.57
85189;BME280;75559;49.132;8.922;2024-03-02T09:32:53;98124.16;;;21.09;36.08
85189;BME280;75559;49.132;8.922;2024-03-02T09:35:19;98111.22;;;20.66;36.92
85189;BME280;75559;49.132;8.922;2024-03-02T09:37:45;98116.25;;;20.22;37.63
85189;BME280;75559;49.132;8.922;2024-03-02T09:40:10;98113.72;;;20.01;38.08
85189;BME280;75559;49.132;8.922;2024-03-02T09:42:37;98112.56;;;21.26;36.56
85189;BME280;75559;49.132;8.922;2024-03-02T09:45:02;98116.09;;;21.27;35.15
85189;BME280;75559;49.132;8.922;2024-03-02T09:47:28;98119.75;;;21.08;35.64
85189;BME280;75559;49.132;8.922;2024-03-02T09:49:54;98112.38;;;21.55;35.63
85189;BME280;75559;49.132;8.922;2024-03-02T09:52:22;98106.03;;;21.82;34.56
85189;BME280;75559;49.132;8.922;2024-03-02T09:54:47;98104.53;;;22.41;34.38
85189;BME280;75559;49.132;8.922;2024-03-02T09:57:14;98106.28;;;22.24;33.08
85189;BME280;75559;49.132;8.922;2024-03-02T09:59:39;98109.84;;;22.25;33.94
85189;BME280;75559;49.132;8.922;2024-03-02T10:02:04;98109.09;;;21.97;33.84
85189;BME280;75559;49.132;8.922;2024-03-02T10:04:32;98102.09;;;22.30;34.15
85189;BME280;75559;49.132;8.922;2024-03-02T10:07:18;98102.41;;;21.28;35.63
85189;BME280;75559;49.132;8.922;2024-03-02T10:09:45;98100.09;;;21.61;35.46
85189;BME280;75559;49.132;8.922;2024-03-02T10:12:12;98113.00;;;20.18;37.85
85189;BME280;75559;49.132;8.922;2024-03-02T10:14:38;98112.94;;;21.31;35.95
85189;BME280;75559;49.132;8.922;2024-03-02T10:17:08;98095.59;;;20.97;36.64
85189;BME280;75559;49.132;8.922;2024-03-02T10:19:35;98079.00;;;20.82;36.51
85189;BME280;75559;49.132;8.922;2024-03-02T10:22:03;98097.22;;;21.80;35.02
85189;BME280;75559;49.132;8.922;2024-03-02T10:24:36;98084.88;;;22.91;34.12
85189;BME280;75559;49.132;8.922;2024-03-02T10:27:09;98087.63;;;21.50;35.02
85189;BME280;75559;49.132;8.922;2024-03-02T10:29:38;98094.88;;;22.64;34.12
85189;BME280;75559;49.132;8.922;2024-03-02T10:32:05;98066.38;;;22.94;32.41
85189;BME280;75559;49.132;8.922;2024-03-02T10:34:31;98079.25;;;23.26;32.13
85189;BME280;75559;49.132;8.922;2024-03-02T10:36:58;98084.22;;;22.71;34.08
85189;BME280;75559;49.132;8.922;2024-03-02T10:39:24;98079.56;;;23.15;32.41
85189;BME280;75559;49.132;8.922;2024-03-02T10:41:49;98080.94;;;22.59;33.25
85189;BME280;75559;49.132;8.922;2024-03-02T10:44:17;98079.91;;;23.79;32.67
85189;BME280;75559;49.132;8.922;2024-03-02T10:46:45;98070.78;;;23.29;32.32
85189;BME280;75559;49.132;8.922;2024-03-02T10:49:12;98070.38;;;23.66;33.43
85189;BME280;75559;49.132;8.922;2024-03-02T10:51:37;98080.41;;;23.16;32.53
85189;BME280;75559;49.132;8.922;2024-03-02T10:54:04;98066.28;;;23.62;33.35
85189;BME280;75559;49.132;8.922;2024-03-02T10:56:38;98073.97;;;22.83;33.28
85189;BME280;75559;49.132;8.922;2024-03-02T11:01:46;98069.59;;;24.39;32.35
85189;BME280;75559;49.132;8.922;2024-03-02T11:04:13;98052.25;;;22.83;32.56
85189;BME280;75559;49.132;8.922;2024-03-02T11:06:49;98068.56;;;23.25;32.59
85189;BME280;75559;49.132;8.922;2024-03-02T11:09:18;98070.56;;;23.15;33.41
85189;BME280;75559;49.132;8.922;2024-03-02T11:11:45;98064.41;;;22.01;34.24
85189;BME280;75559;49.132;8.922;2024-03-02T11:14:15;98059.91;;;22.09;33.97
85189;BME280;75559;49.132;8.922;2024-03-02T11:16:42;98024.56;;;22.45;34.04
85189;BME280;75559;49.132;8.922;2024-03-02T11:19:13;98045.00;;;22.05;33.73
85189;BME280;75559;49.132;8.922;2024-03-02T11:21:39;98046.59;;;22.16;34.40
85189;BME280;75559;49.132;8.922;2024-03-02T11:26:49;98036.03;;;22.65;33.70
85189;BME280;75559;49.132;8.922;2024-03-02T11:32:01;98026.66;;;22.85;34.34
85189;BME280;75559;49.132;8.922;2024-03-02T11:34:34;98033.97;;;23.43;32.57
85189;BME280;75559;49.132;8.922;2024-03-02T11:37:03;98017.34;;;22.28;33.45
85189;BME280;75559;49.132;8.922;2024-03-02T11:39:29;98016.22;;;22.64;33.18
85189;BME280;75559;49.132;8.922;2024-03-02T11:41:58;98022.38;;;21.26;34.87
85189;BME280;75559;49.132;8.922;2024-03-02T11:44:26;98012.53;;;21.78;34.77
85189;BME280;75559;49.132;8.922;2024-03-02T11:46:53;98010.59;;;22.32;32.89
85189;BME280;75559;49.132;8.922;2024-03-02T11:52:11;98001.34;;;20.65;35.95
85189;BME280;75559;49.132;8.922;2024-03-02T11:54:39;97995.94;;;20.92;35.61
85189;BME280;75559;49.132;8.922;2024-03-02T11:57:08;97983.44;;;21.09;33.05
85189;BME280;75559;49.132;8.922;2024-03-02T11:59:33;97982.31;;;22.08;32.43
85189;BME280;75559;49.132;8.922;2024-03-02T12:01:59;97974.22;;;21.47;34.26
85189;BME280;75559;49.132;8.922;2024-03-02T12:04:26;97968.38;;;21.24;34.87
85189;BME280;75559;49.132;8.922;2024-03-02T12:07:01;97978.63;;;21.03;35.04
85189;BME280;75559;49.132;8.922;2024-03-02T12:09:27;97979.34;;;20.77;35.19
85189;BME280;75559;49.132;8.922;2024-03-02T12:12:03;97972.38;;;21.73;33.68
85189;BME280;75559;49.132;8.922;2024-03-02T12:14:29;97967.22;;;21.62;33.35
85189;BME280;75559;49.132;8.922;2024-03-02T12:16:55;97971.91;;;21.07;34.29
85189;BME280;75559;49.132;8.922;2024-03-02T12:19:21;97968.88;;;20.92;34.82
85189;BME280;75559;49.132;8.922;2024-03-02T12:21:46;97959.81;;;21.29;33.88
85189;BME280;75559;49.132;8.922;2024-03-02T12:24:11;97963.94;;;20.88;35.02
85189;BME280;75559;49.132;8.922;2024-03-02T12:26:37;97975.47;;;20.15;34.83
85189;BME280;75559;49.132;8.922;2024-03-02T12:29:02;97969.78;;;19.23;36.45
85189;BME280;75559;49.132;8.922;2024-03-02T12:31:28;97963.53;;;19.62;36.00
85189;BME280;75559;49.132;8.922;2024-03-02T12:33:54;97962.59;;;20.00;36.10
85189;BME280;75559;49.132;8.922;2024-03-02T12:36:19;97949.19;;;20.55;34.83
85189;BME280;75559;49.132;8.922;2024-03-02T12:38:45;97958.41;;;20.79;34.47
85189;BME280;75559;49.132;8.922;2024-03-02T12:41:14;97941.50;;;20.13;35.27
85189;BME280;75559;49.132;8.922;2024-03-02T12:43:40;97943.84;;;20.90;34.57
85189;BME280;75559;49.132;8.922;2024-03-02T12:46:05;97944.84;;;20.89;34.49
85189;BME280;75559;49.132;8.922;2024-03-02T12:48:31;97937.97;;;19.37;35.90
85189;BME280;75559;49.132;8.922;2024-03-02T12:50:56;97950.28;;;19.01;37.57
85189;BME280;75559;49.132;8.922;2024-03-02T12:53:22;97943.38;;;19.17;37.43
85189;BME280;75559;49.132;8.922;2024-03-02T12:55:48;97938.47;;;18.63;37.40
85189;BME280;75559;49.132;8.922;2024-03-02T12:58:19;97938.78;;;18.79;37.38
85189;BME280;75559;49.132;8.922;2024-03-02T13:00:44;97923.19;;;18.92;38.02
85189;BME280;75559;49.132;8.922;2024-03-02T13:03:11;97935.81;;;19.40;36.78
85189;BME280;75559;49.132;8.922;2024-03-02T13:05:36;97932.13;;;18.83;36.95
85189;BME280;75559;49.132;8.922;2024-03-02T13:08:02;97927.72;;;19.50;37.07
85189;BME280;75559;49.132;8.922;2024-03-02T13:10:29;97930.16;;;19.24;37.09
85189;BME280;75559;49.132;8.922;2024-03-02T13:12:56;97929.56;;;19.40;36.63